Time;durP1;ratioP1;P1;durP2;ratioP2;P2;SDS_P1;SDS_P2;PMS_P1;PMS_P2;Temp;Humidity;BMP_temperature;BMP_pressure;BME280_temperature;BME280_humidity;BME280_pressure;Samples;Min_cycle;Max_cycle;Signal;HPM_P1;HPM_P2
2021/11/19 10:32:28;;;;;;;9.97;4.60;;;;;;;8.52;90.37;100387.50;5127730;27;21062;-81
2021/11/19 10:35:30;;;;;;;7.87;4.60;;;;;;;9.11;88.23;100404.16;5109162;27;38530;-81
2021/11/19 10:38:33;;;;;;;7.43;3.73;;;;;;;9.43;84.66;100357.28;5127119;27;42011;-84
2021/11/19 10:44:43;;;;;;;8.07;4.40;;;;;;;10.44;79.22;100387.22;5085605;28;41961;-84
2021/11/19 10:47:54;;;;;;;5.57;4.00;;;;;;;10.74;77.62;100401.09;5090554;27;39943;-82
2021/11/19 10:53:57;;;;;;;8.57;4.73;;;;;;;11.20;75.37;100396.59;5101845;27;42136;-80
2021/11/19 10:56:50;;;;;;;8.60;4.00;;;;;;;11.13;74.57;100383.59;5109237;27;40832;-80
2021/11/19 10:59:33;;;;;;;8.40;4.57;;;;;;;11.21;74.93;100401.00;5108699;27;38915;-79
2021/11/19 11:02:19;;;;;;;6.43;3.87;;;;;;;11.14;74.40;100380.00;5126083;27;41032;-78
2021/11/19 11:04:53;;;;;;;6.80;3.87;;;;;;;11.29;74.41;100388.28;5126620;27;41551;-82
2021/11/19 11:07:24;;;;;;;6.90;4.03;;;;;;;11.19;73.76;100365.72;5126452;27;42340;-82
2021/11/19 11:09:55;;;;;;;8.47;4.33;;;;;;;11.32;72.90;100393.47;5108757;27;38921;-82
2021/11/19 11:12:27;;;;;;;7.23;4.07;;;;;;;11.43;72.81;100407.13;5160686;27;41820;-81
2021/11/19 11:15:12;;;;;;;7.23;4.37;;;;;;;11.44;72.55;100408.88;5126370;27;43739;-82
2021/11/19 11:17:56;;;;;;;6.77;3.83;;;;;;;11.45;72.51;100389.38;5126811;27;41345;-81
2021/11/19 11:20:29;;;;;;;8.33;3.70;;;;;;;11.52;71.97;100398.78;5126035;27;40345;-81
2021/11/19 11:23:01;;;;;;;6.63;4.03;;;;;;;11.45;71.80;100381.41;5109501;27;40644;-81
2021/11/19 11:25:32;;;;;;;7.70;4.03;;;;;;;11.53;71.86;100392.56;5125439;27;43828;-80
2021/11/19 11:28:10;;;;;;;7.50;3.87;;;;;;;11.44;71.97;100367.28;5076479;28;42614;-81
2021/11/19 11:30:53;;;;;;;8.40;4.67;;;;;;;11.53;71.37;100389.91;5106538;28;40616;-82
2021/11/19 11:33:24;;;;;;;5.33;3.93;;;;;;;11.44;71.39;100366.41;5115526;27;40994;-79
2021/11/19 11:36:11;;;;;;;7.03;3.97;;;;;;;11.51;71.75;100367.88;5126231;27;42714;-83
2021/11/19 11:38:53;;;;;;;7.20;3.60;;;;;;;11.67;71.68;100374.28;5125812;27;42248;-80
2021/11/19 11:41:30;;;;;;;6.50;4.20;;;;;;;11.71;71.29;100375.88;5107669;27;38537;-81
2021/11/19 11:44:30;;;;;;;6.60;4.27;;;;;;;11.76;71.24;100378.34;5111876;28;41509;-83
2021/11/19 11:47:32;;;;;;;5.87;3.53;;;;;;;11.79;71.19;100384.38;5106646;28;43071;-85
2021/11/19 11:50:17;;;;;;;4.57;2.97;;;;;;;11.77;71.11;100365.00;5094067;28;42257;-82
2021/11/19 11:53:28;;;;;;;7.50;4.50;;;;;;;11.84;70.26;100358.53;5111869;28;40130;-85
2021/11/19 11:56:28;;;;;;;6.77;3.87;;;;;;;12.03;70.18;100360.34;5090954;28;42244;-81
2021/11/19 11:59:04;;;;;;;5.37;3.27;;;;;;;12.11;69.79;100351.13;5093747;28;43153;-79
2021/11/19 12:05:02;;;;;;;6.10;3.97;;;;;;;12.43;68.97;100376.22;5092975;28;39931;-84
2021/11/19 12:08:01;;;;;;;4.87;2.90;;;;;;;12.33;68.64;100348.34;5092223;28;42676;-84
2021/11/19 12:10:57;;;;;;;4.50;3.50;;;;;;;12.40;68.88;100344.47;5109897;28;41771;-84
2021/11/19 12:13:34;;;;;;;4.97;3.50;;;;;;;12.64;68.46;100370.84;5094412;28;41442;-79
2021/11/19 12:16:11;;;;;;;4.40;3.10;;;;;;;12.61;67.89;100358.53;5111503;28;40083;-80
2021/11/19 12:18:46;;;;;;;5.23;3.30;;;;;;;12.73;67.69;100362.44;5111652;28;40698;-80
2021/11/19 12:21:22;;;;;;;7.60;4.27;;;;;;;12.70;67.45;100367.91;5112099;28;42948;-83
2021/11/19 12:24:05;;;;;;;6.53;3.80;;;;;;;12.73;67.28;100359.78;5144837;27;42832;-79
2021/11/19 12:27:01;;;;;;;5.67;3.57;;;;;;;12.75;67.21;100360.56;5112473;28;39971;-80
2021/11/19 12:29:37;;;;;;;6.70;3.57;;;;;;;12.77;66.64;100353.38;5107790;28;41362;-80
2021/11/19 12:32:15;;;;;;;6.33;4.00;;;;;;;12.77;67.17;100356.91;5110658;28;43758;-79
2021/11/19 12:38:20;;;;;;;4.97;2.93;;;;;;;12.73;66.75;100341.19;5092156;28;38896;-84
2021/11/19 12:41:30;;;;;;;6.83;2.77;;;;;;;12.68;66.32;100324.56;5093751;28;40868;-86
2021/11/19 12:44:34;;;;;;;4.90;3.17;;;;;;;12.87;66.89;100341.34;5076416;28;43655;-83
2021/11/19 12:47:31;;;;;;;4.93;2.73;;;;;;;12.87;66.82;100331.59;5093181;28;40710;-82
2021/11/19 12:50:11;;;;;;;4.60;2.87;;;;;;;12.74;66.24;100322.47;5073186;28;39340;-79
2021/11/19 12:52:42;;;;;;;4.60;3.07;;;;;;;12.76;66.12;100314.44;5090529;28;41884;-80
2021/11/19 12:55:33;;;;;;;6.27;3.33;;;;;;;12.87;66.58;100328.06;5090357;28;43840;-81
2021/11/19 12:58:21;;;;;;;5.97;3.23;;;;;;;12.85;66.27;100335.28;5089047;28;42120;-80
2021/11/19 13:00:56;;;;;;;3.00;2.20;;;;;;;12.77;66.63;100316.16;5091116;28;38981;-82
2021/11/19 13:03:50;;;;;;;3.50;2.60;;;;;;;12.85;66.82;100319.31;5115575;27;40735;-81
2021/11/19 13:09:59;;;;;;;3.87;2.33;;;;;;;12.80;67.18;100316.00;5072316;28;41474;-79
2021/11/19 13:12:31;;;;;;;4.63;2.80;;;;;;;12.67;67.16;100298.94;5127548;27;39402;-81
2021/11/19 13:15:37;;;;;;;4.17;2.67;;;;;;;12.73;66.41;100314.59;5110777;28;40533;-80
2021/11/19 13:18:43;;;;;;;4.13;3.10;;;;;;;12.73;66.49;100310.16;5032059;28;41600;-78
2021/11/19 13:21:43;;;;;;;3.23;2.87;;;;;;;12.82;66.45;100296.41;5015310;28;42218;-79
2021/11/19 13:24:39;;;;;;;4.53;3.10;;;;;;;12.97;66.32;100302.78;5083548;28;40642;-80
2021/11/19 13:27:52;;;;;;;4.23;3.10;;;;;;;12.99;66.11;100300.00;5101984;28;42139;-84
2021/11/19 13:30:48;;;;;;;4.33;2.90;;;;;;;12.78;65.40;100264.72;5075567;28;43756;-88
2021/11/19 13:33:26;;;;;;;4.30;3.13;;;;;;;12.86;66.19;100274.03;5090504;28;41498;-88
2021/11/19 13:36:26;;;;;;;4.37;2.60;;;;;;;13.06;66.37;100286.34;5092875;28;40281;-89
2021/11/19 13:39:14;;;;;;;4.87;3.07;;;;;;;13.15;65.85;100288.56;5082994;28;40310;-86
2021/11/19 13:42:15;;;;;;;3.87;2.47;;;;;;;13.24;65.13;100282.78;5092127;28;41946;-85
2021/11/19 13:45:12;;;;;;;3.97;2.47;;;;;;;13.32;65.00;100286.88;5084336;27;42664;-86
2021/11/19 13:48:14;;;;;;;4.40;2.97;;;;;;;13.24;64.42;100290.75;5133374;27;37887;-81
2021/11/19 13:51:08;;;;;;;4.83;3.03;;;;;;;13.26;64.58;100272.06;5077946;27;41719;-88
2021/11/19 13:54:17;;;;;;;2.70;2.30;;;;;;;13.33;64.83;100267.31;5094525;27;42604;-88
2021/11/19 13:57:08;;;;;;;3.80;2.87;;;;;;;13.34;64.89;100285.00;5106352;27;42125;-87
2021/11/19 13:59:46;;;;;;;6.53;3.20;;;;;;;13.17;64.75;100262.75;5117122;27;39390;-81
2021/11/19 14:02:22;;;;;;;4.90;3.77;;;;;;;13.07;65.00;100277.44;5131889;27;42185;-85
2021/11/19 14:05:20;;;;;;;5.77;3.80;;;;;;;12.97;64.87;100252.25;5115993;27;42754;-86
2021/11/19 14:07:57;;;;;;;6.00;3.07;;;;;;;13.01;65.14;100272.41;5115474;27;42949;-82
2021/11/19 14:10:29;;;;;;;6.67;3.33;;;;;;;13.02;65.65;100274.13;5115878;27;39919;-80
2021/11/19 14:13:00;;;;;;;3.90;2.80;;;;;;;13.09;65.73;100264.94;5133197;27;41764;-77
2021/11/19 14:15:31;;;;;;;4.00;3.10;;;;;;;13.08;64.98;100268.53;5115958;27;43118;-78
2021/11/19 14:18:22;;;;;;;2.97;2.43;;;;;;;12.94;65.38;100273.66;5112373;27;42168;-78
2021/11/19 14:24:12;;;;;;;4.50;3.23;;;;;;;12.61;65.74;100262.03;5121788;27;40844;-82
2021/11/19 14:26:42;;;;;;;5.90;3.90;;;;;;;12.53;66.03;100257.94;5109103;27;42018;-80
2021/11/19 14:29:19;;;;;;;5.00;3.10;;;;;;;12.56;66.30;100275.53;5138903;27;42691;-80
2021/11/19 14:31:49;;;;;;;5.07;3.40;;;;;;;12.44;66.79;100260.16;5102914;27;39879;-77
2021/11/19 14:34:19;;;;;;;3.87;2.70;;;;;;;12.37;66.54;100258.72;5109163;27;41117;-79
2021/11/19 14:36:51;;;;;;;4.40;3.10;;;;;;;12.46;66.45;100269.78;5125896;27;43488;-79
2021/11/19 14:39:25;;;;;;;5.70;4.20;;;;;;;12.46;66.49;100261.81;5114056;27;42092;-82
2021/11/19 14:41:57;;;;;;;7.00;4.50;;;;;;;12.40;66.29;100255.94;5102007;27;39294;-83
2021/11/19 14:44:41;;;;;;;4.67;3.23;;;;;;;12.18;66.40;100238.34;5116275;27;41011;-83
2021/11/19 14:47:13;;;;;;;6.63;3.73;;;;;;;12.20;66.59;100262.19;5110667;27;42211;-82
2021/11/19 14:49:45;;;;;;;9.30;3.20;;;;;;;12.12;66.95;100248.38;5118070;27;41238;-82
2021/11/19 14:52:36;;;;;;;4.63;3.00;;;;;;;12.14;67.06;100268.63;5123274;27;40335;-84
2021/11/19 14:55:21;;;;;;;4.10;2.93;;;;;;;11.99;67.48;100257.88;5141081;27;41951;-81
2021/11/19 14:57:54;;;;;;;4.13;3.17;;;;;;;11.95;67.64;100265.13;5098555;27;41989;-80
2021/11/19 15:00:43;;;;;;;7.23;3.67;;;;;;;11.83;68.07;100260.38;5116259;27;43447;-83
2021/11/19 15:03:14;;;;;;;3.70;2.50;;;;;;;11.72;68.18;100244.91;5100368;27;39099;-81
2021/11/19 15:05:45;;;;;;;4.53;3.20;;;;;;;11.73;68.38;100262.56;5102741;27;40761;-79
2021/11/19 15:08:21;;;;;;;5.13;3.33;;;;;;;11.62;68.51;100262.13;5137290;27;43615;-80
2021/11/19 15:11:21;;;;;;;3.97;3.10;;;;;;;11.50;69.18;100250.28;5138113;27;42822;-80
2021/11/19 15:14:06;;;;;;;3.73;2.50;;;;;;;11.46;69.47;100253.16;5098807;27;38824;-82
2021/11/19 15:16:38;;;;;;;4.10;2.90;;;;;;;11.38;69.90;100249.94;5117838;27;40762;-84
2021/11/19 15:19:06;;;;;;;4.87;3.00;;;;;;;10.99;69.71;100194.22;5105340;27;41810;-80
2021/11/19 15:21:36;;;;;;;4.80;3.00;;;;;;;11.31;69.77;100264.41;5117082;27;42664;-82
2021/11/19 15:24:25;;;;;;;4.03;2.53;;;;;;;11.24;70.13;100249.72;5117236;27;38591;-82
2021/11/19 15:26:56;;;;;;;6.73;3.17;;;;;;;11.21;70.09;100253.34;5121283;27;42145;-82
2021/11/19 15:29:37;;;;;;;3.87;2.67;;;;;;;11.23;70.45;100253.28;5107197;27;43665;-83
2021/11/19 15:35:16;;;;;;;5.90;3.30;;;;;;;11.11;70.76;100259.97;5116765;27;40481;-79
2021/11/19 15:37:48;;;;;;;5.30;3.83;;;;;;;10.95;70.91;100233.25;5105640;27;41748;-81
2021/11/19 15:40:20;;;;;;;5.10;3.37;;;;;;;10.97;70.89;100247.28;5135068;27;42999;-81
2021/11/19 15:42:51;;;;;;;4.80;2.87;;;;;;;10.92;71.44;100236.00;5144124;27;43476;-79
2021/11/19 15:45:22;;;;;;;8.40;3.83;;;;;;;10.83;71.18;100233.75;5134854;27;40647;-84
2021/11/19 15:47:50;;;;;;;5.67;3.20;;;;;;;10.83;71.56;100241.69;5118963;27;41223;-80
2021/11/19 15:50:21;;;;;;;5.07;3.40;;;;;;;10.78;71.58;100243.66;5120674;27;41989;-82
2021/11/19 15:52:51;;;;;;;5.73;3.53;;;;;;;10.69;71.73;100228.16;5122012;27;41925;-82
2021/11/19 15:55:30;;;;;;;5.13;3.10;;;;;;;10.59;71.58;100216.22;5099581;27;40790;-79
2021/11/19 15:58:24;;;;;;;4.47;2.57;;;;;;;10.66;71.93;100234.44;5123548;27;41427;-82
2021/11/19 16:00:52;;;;;;;4.37;2.70;;;;;;;10.59;71.95;100221.50;5118270;27;43175;-80
2021/11/19 16:04:11;;;;;;;3.67;2.33;;;;;;;10.68;72.28;100245.84;5120836;27;42759;-85
2021/11/19 16:06:50;;;;;;;4.50;3.00;;;;;;;10.55;71.92;100219.91;5084542;27;39275;-80
2021/11/19 16:09:32;;;;;;;4.50;2.70;;;;;;;10.53;71.95;100227.91;5123123;27;40517;-81
2021/11/19 16:12:33;;;;;;;7.93;3.57;;;;;;;10.49;72.16;100220.16;5111686;27;41974;-87
2021/11/19 16:15:16;;;;;;;3.50;2.50;;;;;;;10.68;71.97;100253.78;5099888;27;41017;-84
2021/11/19 16:17:44;;;;;;;3.97;2.80;;;;;;;10.60;71.79;100234.69;5106767;27;38786;-86
2021/11/19 16:20:14;;;;;;;5.10;3.27;;;;;;;10.66;72.09;100250.34;5100400;27;41796;-84
2021/11/19 16:22:43;;;;;;;5.90;2.57;;;;;;;10.61;72.06;100246.16;5106706;27;42781;-84
2021/11/19 16:25:12;;;;;;;5.57;2.73;;;;;;;10.66;71.79;100258.28;5132358;27;42263;-84
2021/11/19 16:27:43;;;;;;;4.53;2.50;;;;;;;10.59;71.88;100242.72;5103057;27;39022;-80
2021/11/19 16:30:13;;;;;;;2.80;2.10;;;;;;;10.69;72.10;100259.94;5106406;27;41069;-80
2021/11/19 16:32:43;;;;;;;2.90;1.87;;;;;;;10.72;71.88;100267.78;5112689;27;41642;-80
2021/11/19 16:35:13;;;;;;;5.13;2.40;;;;;;;10.71;72.31;100255.47;5113504;27;44152;-81
2021/11/19 16:37:41;;;;;;;3.93;3.07;;;;;;;10.67;71.87;100251.19;5104723;27;40090;-81
2021/11/19 16:40:11;;;;;;;4.13;2.83;;;;;;;10.67;71.93;100256.50;5134741;27;41246;-81
2021/11/19 16:42:39;;;;;;;3.27;2.43;;;;;;;10.63;72.44;100250.44;5118038;27;43808;-80
2021/11/19 16:45:09;;;;;;;3.20;2.90;;;;;;;10.64;72.22;100256.63;5131582;27;43106;-81
2021/11/19 16:47:36;;;;;;;2.63;2.27;;;;;;;10.59;72.24;100248.00;5122399;27;39018;-81
2021/11/19 16:50:08;;;;;;;3.40;2.13;;;;;;;10.52;72.74;100241.22;5113978;27;41860;-80
2021/11/19 16:52:37;;;;;;;4.57;2.07;;;;;;;10.54;72.62;100249.97;5114464;27;42756;-82
2021/11/19 16:55:06;;;;;;;3.97;2.30;;;;;;;10.57;72.67;100249.84;5119510;27;41327;-80
2021/11/19 16:57:34;;;;;;;3.97;2.23;;;;;;;10.57;72.65;100249.84;5110826;27;40115;-80
2021/11/19 17:00:05;;;;;;;4.47;2.77;;;;;;;10.60;72.81;100262.97;5108030;27;41371;-79
2021/11/19 17:02:32;;;;;;;3.00;2.23;;;;;;;10.49;72.61;100241.34;5117749;27;41855;-80
2021/11/19 17:05:00;;;;;;;3.20;2.10;;;;;;;10.48;72.59;100251.09;5133759;27;42222;-81
2021/11/19 17:07:29;;;;;;;3.80;2.60;;;;;;;10.50;73.00;100258.97;5110661;27;38734;-81
2021/11/19 17:09:57;;;;;;;3.50;2.23;;;;;;;10.55;72.76;100262.28;5114205;27;41011;-79
2021/11/19 17:12:24;;;;;;;4.03;2.63;;;;;;;10.26;72.96;100210.50;5131895;27;43356;-81
2021/11/19 17:14:52;;;;;;;2.23;2.03;;;;;;;10.53;73.02;100253.53;5108044;27;41349;-80
2021/11/19 17:17:20;;;;;;;4.23;2.50;;;;;;;10.42;72.79;100241.59;5128647;27;41000;-81
2021/11/19 17:19:48;;;;;;;3.93;2.63;;;;;;;10.51;73.20;100261.53;5097054;27;41787;-81
2021/11/19 17:22:15;;;;;;;3.27;2.60;;;;;;;10.47;73.47;100259.09;5096292;27;43069;-81
